sensor_id;sensor_type;location;lat;lon;timestamp;pressure;altitude;pressure_sealevel;temperature;humidity
28428;BME280;15662;49.128;8.520;2023-05-08T00:01:40;100717.41;;;20.64;67.89
28428;BME280;15662;49.128;8.520;2023-05-08T00:04:08;100721.16;;;20.61;67.77
28428;BME280;15662;49.128;8.520;2023-05-08T00:06:36;100715.88;;;20.60;67.77
28428;BME280;15662;49.128;8.520;2023-05-08T00:09:04;100721.25;;;20.60;67.96
28428;BME280;15662;49.128;8.520;2023-05-08T00:11:32;100713.06;;;20.61;67.99
28428;BME280;15662;49.128;8.520;2023-05-08T00:14:00;100716.53;;;20.64;68.08
28428;BME280;15662;49.128;8.520;2023-05-08T00:16:28;100704.03;;;20.63;67.72
28428;BME280;15662;49.128;8.520;2023-05-08T00:18:56;100706.81;;;20.61;67.63
28428;BME280;15662;49.128;8.520;2023-05-08T00:21:24;100713.94;;;20.62;67.70
28428;BME280;15662;49.128;8.520;2023-05-08T00:23:52;100706.13;;;20.57;67.92
28428;BME280;15662;49.128;8.520;2023-05-08T00:26:19;100714.31;;;20.56;67.87
28428;BME280;15662;49.128;8.520;2023-05-08T00:28:48;100703.09;;;20.49;68.23
28428;BME280;15662;49.128;8.520;2023-05-08T00:31:16;100722.59;;;20.53;68.03
28428;BME280;15662;49.128;8.520;2023-05-08T00:33:43;100715.56;;;20.50;68.03
28428;BME280;15662;49.128;8.520;2023-05-08T00:36:11;100724.41;;;20.52;68.34
28428;BME280;15662;49.128;8.520;2023-05-08T00:38:42;100730.59;;;20.54;68.19
28428;BME280;15662;49.128;8.520;2023-05-08T00:41:10;100726.06;;;20.55;68.20
28428;BME280;15662;49.128;8.520;2023-05-08T00:43:38;100732.22;;;20.57;68.43
28428;BME280;15662;49.128;8.520;2023-05-08T00:46:06;100726.72;;;20.58;68.20
28428;BME280;15662;49.128;8.520;2023-05-08T00:48:37;100717.88;;;20.56;68.15
28428;BME280;15662;49.128;8.520;2023-05-08T00:51:07;100729.41;;;20.58;68.07
28428;BME280;15662;49.128;8.520;2023-05-08T00:53:42;100738.28;;;20.60;67.88
28428;BME280;15662;49.128;8.520;2023-05-08T00:56:13;100723.53;;;20.52;67.88
28428;BME280;15662;49.128;8.520;2023-05-08T00:58:42;100729.13;;;20.49;68.20
28428;BME280;15662;49.128;8.520;2023-05-08T01:01:11;100734.44;;;20.50;68.10
28428;BME280;15662;49.128;8.520;2023-05-08T01:03:39;100738.16;;;20.48;68.21
28428;BME280;15662;49.128;8.520;2023-05-08T01:06:08;100741.63;;;20.50;68.43
28428;BME280;15662;49.128;8.520;2023-05-08T01:08:36;100734.44;;;20.50;68.49
28428;BME280;15662;49.128;8.520;2023-05-08T01:11:16;100745.94;;;20.52;68.10
28428;BME280;15662;49.128;8.520;2023-05-08T01:14:20;100747.19;;;20.47;67.76
28428;BME280;15662;49.128;8.520;2023-05-08T01:17:09;100744.06;;;20.39;67.94
28428;BME280;15662;49.128;8.520;2023-05-08T01:26:35;100747.94;;;20.19;68.22
28428;BME280;15662;49.128;8.520;2023-05-08T01:32:13;100757.69;;;20.21;68.44
28428;BME280;15662;49.128;8.520;2023-05-08T01:37:18;100747.47;;;20.12;69.06
28428;BME280;15662;49.128;8.520;2023-05-08T01:40:10;100749.50;;;20.23;68.77
28428;BME280;15662;49.128;8.520;2023-05-08T01:42:52;100751.06;;;20.27;68.58
28428;BME280;15662;49.128;8.520;2023-05-08T01:45:37;100751.06;;;20.27;68.64
28428;BME280;15662;49.128;8.520;2023-05-08T01:48:12;100758.00;;;20.31;68.71
28428;BME280;15662;49.128;8.520;2023-05-08T01:50:48;100753.38;;;20.33;68.54
28428;BME280;15662;49.128;8.520;2023-05-08T01:53:25;100751.56;;;20.33;68.62
28428;BME280;15662;49.128;8.520;2023-05-08T01:56:04;100749.72;;;20.34;68.20
28428;BME280;15662;49.128;8.520;2023-05-08T01:58:36;100748.84;;;20.33;68.53
28428;BME280;15662;49.128;8.520;2023-05-08T02:01:04;100743.41;;;20.35;68.40
28428;BME280;15662;49.128;8.520;2023-05-08T02:03:33;100755.09;;;20.34;68.16
28428;BME280;15662;49.128;8.520;2023-05-08T02:06:02;100752.34;;;20.35;68.39
28428;BME280;15662;49.128;8.520;2023-05-08T02:08:31;100754.19;;;20.35;68.12
28428;BME280;15662;49.128;8.520;2023-05-08T02:11:03;100757.81;;;20.34;68.38
28428;BME280;15662;49.128;8.520;2023-05-08T02:13:34;100760.50;;;20.34;68.31
28428;BME280;15662;49.128;8.520;2023-05-08T02:16:03;100759.72;;;20.32;68.22
28428;BME280;15662;49.128;8.520;2023-05-08T02:18:33;100756.00;;;20.34;68.32
28428;BME280;15662;49.128;8.520;2023-05-08T02:21:04;100746.00;;;20.36;68.27
28428;BME280;15662;49.128;8.520;2023-05-08T02:23:34;100764.09;;;20.34;68.64
28428;BME280;15662;49.128;8.520;2023-05-08T02:26:03;100754.94;;;20.37;68.46
28428;BME280;15662;49.128;8.520;2023-05-08T02:28:32;100760.22;;;20.39;68.75
28428;BME280;15662;49.128;8.520;2023-05-08T02:31:01;100760.22;;;20.39;68.34
28428;BME280;15662;49.128;8.520;2023-05-08T02:33:30;100752.34;;;20.35;68.27
28428;BME280;15662;49.128;8.520;2023-05-08T02:35:59;100761.00;;;20.41;68.49
28428;BME280;15662;49.128;8.520;2023-05-08T02:38:29;100766.19;;;20.44;68.40
28428;BME280;15662;49.128;8.520;2023-05-08T02:41:00;100764.56;;;20.41;68.46
28428;BME280;15662;49.128;8.520;2023-05-08T02:43:30;100761.28;;;20.36;68.61
28428;BME280;15662;49.128;8.520;2023-05-08T02:46:43;100772.06;;;20.36;68.57
28428;BME280;15662;49.128;8.520;2023-05-08T02:52:29;100770.41;;;20.33;68.96
28428;BME280;15662;49.128;8.520;2023-05-08T02:55:09;100767.81;;;20.32;68.90
28428;BME280;15662;49.128;8.520;2023-05-08T03:00:27;100774.91;;;20.33;68.94
28428;BME280;15662;49.128;8.520;2023-05-08T03:05:37;100765.22;;;20.30;69.56
28428;BME280;15662;49.128;8.520;2023-05-08T03:08:13;100764.16;;;20.33;69.20
28428;BME280;15662;49.128;8.520;2023-05-08T03:10:45;100760.50;;;20.34;69.43
28428;BME280;15662;49.128;8.520;2023-05-08T03:13:18;100766.56;;;20.38;69.51
28428;BME280;15662;49.128;8.520;2023-05-08T03:15:54;100771.69;;;20.42;69.44
28428;BME280;15662;49.128;8.520;2023-05-08T03:18:48;100760.03;;;20.42;69.09
28428;BME280;15662;49.128;8.520;2023-05-08T03:21:20;100766.13;;;20.45;69.27
28428;BME280;15662;49.128;8.520;2023-05-08T03:23:51;100765.16;;;20.46;69.33
28428;BME280;15662;49.128;8.520;2023-05-08T03:26:20;100766.13;;;20.45;69.25
28428;BME280;15662;49.128;8.520;2023-05-08T03:28:50;100758.97;;;20.44;68.86
28428;BME280;15662;49.128;8.520;2023-05-08T03:31:22;100766.03;;;20.47;69.08
28428;BME280;15662;49.128;8.520;2023-05-08T03:33:53;100758.84;;;20.47;69.09
28428;BME280;15662;49.128;8.520;2023-05-08T03:36:24;100766.81;;;20.49;69.18
28428;BME280;15662;49.128;8.520;2023-05-08T03:38:54;100761.66;;;20.30;69.20
28428;BME280;15662;49.128;8.520;2023-05-08T03:41:24;100765.44;;;20.42;69.19
28428;BME280;15662;49.128;8.520;2023-05-08T03:43:54;100753.78;;;20.41;69.29
28428;BME280;15662;49.128;8.520;2023-05-08T03:46:23;100770.47;;;20.48;69.14
28428;BME280;15662;49.128;8.520;2023-05-08T03:48:52;100767.78;;;20.48;69.27
28428;BME280;15662;49.128;8.520;2023-05-08T03:51:21;100779.22;;;20.51;69.27
28428;BME280;15662;49.128;8.520;2023-05-08T03:53:49;100773.75;;;20.53;69.17
28428;BME280;15662;49.128;8.520;2023-05-08T03:56:18;100776.44;;;20.53;69.38
28428;BME280;15662;49.128;8.520;2023-05-08T03:59:23;100775.56;;;20.52;69.14
28428;BME280;15662;49.128;8.520;2023-05-08T04:05:38;100779.22;;;20.51;69.16
28428;BME280;15662;49.128;8.520;2023-05-08T04:08:27;100776.66;;;20.50;69.30
28428;BME280;15662;49.128;8.520;2023-05-08T04:11:14;100762.97;;;20.53;69.53
28428;BME280;15662;49.128;8.520;2023-05-08T04:13:49;100781.53;;;20.57;69.78
28428;BME280;15662;49.128;8.520;2023-05-08T04:16:23;100773.75;;;20.53;69.90
28428;BME280;15662;49.128;8.520;2023-05-08T04:19:01;100786.06;;;20.57;69.85
28428;BME280;15662;49.128;8.520;2023-05-08T04:21:33;100786.34;;;20.52;70.09
28428;BME280;15662;49.128;8.520;2023-05-08T04:24:03;100780.22;;;20.34;70.25
28428;BME280;15662;49.128;8.520;2023-05-08T04:26:37;100780.44;;;20.46;70.42
28428;BME280;15662;49.128;8.520;2023-05-08T04:29:05;100786.19;;;20.55;70.18
28428;BME280;15662;49.128;8.520;2023-05-08T04:31:36;100785.22;;;20.56;70.25
28428;BME280;15662;49.128;8.520;2023-05-08T04:34:06;100792.16;;;20.60;70.08
28428;BME280;15662;49.128;8.520;2023-05-08T04:36:43;100790.41;;;20.59;70.04
28428;BME280;15662;49.128;8.520;2023-05-08T04:39:11;100799.25;;;20.61;70.27
28428;BME280;15662;49.128;8.520;2023-05-08T04:41:41;100781.66;;;20.56;70.00
28428;BME280;15662;49.128;8.520;2023-05-08T04:44:09;100793.00;;;20.61;69.86
28428;BME280;15662;49.128;8.520;2023-05-08T04:46:38;100790.50;;;20.58;70.01
28428;BME280;15662;49.128;8.520;2023-05-08T04:49:06;100787.91;;;20.56;69.95
28428;BME280;15662;49.128;8.520;2023-05-08T04:51:33;100791.34;;;20.58;69.88
28428;BME280;15662;49.128;8.520;2023-05-08T04:54:02;100794.75;;;20.62;69.99
28428;BME280;15662;49.128;8.520;2023-05-08T04:56:31;100795.59;;;20.63;70.02
28428;BME280;15662;49.128;8.520;2023-05-08T04:59:00;100799.09;;;20.65;70.25
28428;BME280;15662;49.128;8.520;2023-05-08T05:01:34;100796.38;;;20.65;70.32
28428;BME280;15662;49.128;8.520;2023-05-08T05:04:02;100808.78;;;20.67;70.32
28428;BME280;15662;49.128;8.520;2023-05-08T05:06:30;100805.22;;;20.67;70.32
28428;BME280;15662;49.128;8.520;2023-05-08T05:09:00;100811.38;;;20.69;70.41
28428;BME280;15662;49.128;8.520;2023-05-08T05:11:28;100810.63;;;20.67;70.27
28428;BME280;15662;49.128;8.520;2023-05-08T05:13:58;100809.84;;;20.65;70.37
28428;BME280;15662;49.128;8.520;2023-05-08T05:16:26;100818.41;;;20.71;70.21
28428;BME280;15662;49.128;8.520;2023-05-08T05:18:54;100814.97;;;20.69;70.16
28428;BME280;15662;49.128;8.520;2023-05-08T05:21:22;100811.38;;;20.69;70.39
28428;BME280;15662;49.128;8.520;2023-05-08T05:23:51;100821.81;;;20.75;70.57
28428;BME280;15662;49.128;8.520;2023-05-08T05:26:21;100823.81;;;20.71;70.40
28428;BME280;15662;49.128;8.520;2023-05-08T05:28:51;100822.66;;;20.75;70.43
28428;BME280;15662;49.128;8.520;2023-05-08T05:31:19;100817.19;;;20.77;70.42
28428;BME280;15662;49.128;8.520;2023-05-08T05:33:49;100823.94;;;20.84;70.23
28428;BME280;15662;49.128;8.520;2023-05-08T05:36:17;100824.00;;;20.82;70.38
28428;BME280;15662;49.128;8.520;2023-05-08T05:38:47;100820.75;;;20.77;70.45
28428;BME280;15662;49.128;8.520;2023-05-08T05:41:15;100833.16;;;20.80;70.39
28428;BME280;15662;49.128;8.520;2023-05-08T05:43:45;100834.13;;;20.79;70.54
28428;BME280;15662;49.128;8.520;2023-05-08T05:46:15;100833.25;;;20.78;70.45
28428;BME280;15662;49.128;8.520;2023-05-08T05:48:43;100826.41;;;20.73;70.39
28428;BME280;15662;49.128;8.520;2023-05-08T05:51:11;100837.88;;;20.76;70.27
28428;BME280;15662;49.128;8.520;2023-05-08T05:53:40;100834.41;;;20.74;70.66
28428;BME280;15662;49.128;8.520;2023-05-08T05:56:10;100838.91;;;20.74;70.64
28428;BME280;15662;49.128;8.520;2023-05-08T05:58:38;100833.72;;;20.71;70.38
28428;BME280;15662;49.128;8.520;2023-05-08T06:01:09;100844.22;;;20.75;70.71
28428;BME280;15662;49.128;8.520;2023-05-08T06:03:42;100849.59;;;20.75;70.52
28428;BME280;15662;49.128;8.520;2023-05-08T06:06:13;100844.22;;;20.75;70.62
28428;BME280;15662;49.128;8.520;2023-05-08T06:08:41;100843.34;;;20.75;70.56
28428;BME280;15662;49.128;8.520;2023-05-08T06:11:08;100850.97;;;20.82;70.44
28428;BME280;15662;49.128;8.520;2023-05-08T06:13:40;100849.91;;;20.85;70.37
28428;BME280;15662;49.128;8.520;2023-05-08T06:16:08;100844.59;;;20.83;70.46
28428;BME280;15662;49.128;8.520;2023-05-08T06:18:36;100853.31;;;20.89;70.53
28428;BME280;15662;49.128;8.520;2023-05-08T06:21:10;100856.88;;;20.89;70.38
28428;BME280;15662;49.128;8.520;2023-05-08T06:23:38;100863.97;;;20.90;70.09
28428;BME280;15662;49.128;8.520;2023-05-08T06:26:06;100861.19;;;20.92;69.93
28428;BME280;15662;49.128;8.520;2023-05-08T06:28:35;100857.63;;;20.91;70.05
28428;BME280;15662;49.128;8.520;2023-05-08T06:31:05;100855.91;;;20.90;70.24
28428;BME280;15662;49.128;8.520;2023-05-08T06:33:35;100864.66;;;20.94;69.96
28428;BME280;15662;49.128;8.520;2023-05-08T06:36:05;100856.47;;;20.95;70.07
28428;BME280;15662;49.128;8.520;2023-05-08T06:38:33;100857.50;;;20.93;70.03
28428;BME280;15662;49.128;8.520;2023-05-08T06:41:01;100861.66;;;20.98;69.85
28428;BME280;15662;49.128;8.520;2023-05-08T06:43:30;100861.66;;;20.98;69.95
28428;BME280;15662;49.128;8.520;2023-05-08T06:45:59;100855.41;;;20.98;69.75
28428;BME280;15662;49.128;8.520;2023-05-08T06:48:29;100852.81;;;20.96;69.95
28428;BME280;15662;49.128;8.520;2023-05-08T06:51:04;100857.94;;;21.01;69.87
28428;BME280;15662;49.128;8.520;2023-05-08T06:53:35;100861.66;;;20.98;69.89
28428;BME280;15662;49.128;8.520;2023-05-08T06:56:03;100851.56;;;21.02;69.76
28428;BME280;15662;49.128;8.520;2023-05-08T06:58:35;100850.69;;;21.01;69.73
28428;BME280;15662;49.128;8.520;2023-05-08T07:01:03;100861.22;;;21.06;69.68
28428;BME280;15662;49.128;8.520;2023-05-08T07:03:31;100861.22;;;21.06;69.59
28428;BME280;15662;49.128;8.520;2023-05-08T07:05:59;100863.72;;;21.09;69.77
28428;BME280;15662;49.128;8.520;2023-05-08T07:08:28;100868.16;;;21.10;69.59
28428;BME280;15662;49.128;8.520;2023-05-08T07:10:58;100868.03;;;21.11;69.61
28428;BME280;15662;49.128;8.520;2023-05-08T07:13:26;100856.56;;;21.08;69.41
28428;BME280;15662;49.128;8.520;2023-05-08T07:15:59;100857.53;;;21.07;69.41
28428;BME280;15662;49.128;8.520;2023-05-08T07:18:27;100872.38;;;21.14;69.36
28428;BME280;15662;49.128;8.520;2023-05-08T07:20:55;100872.28;;;21.16;69.21
28428;BME280;15662;49.128;8.520;2023-05-08T07:23:24;100873.03;;;21.18;69.20
28428;BME280;15662;49.128;8.520;2023-05-08T07:25:54;100869.41;;;21.19;68.94
28428;BME280;15662;49.128;8.520;2023-05-08T07:28:22;100871.31;;;21.17;69.02
28428;BME280;15662;49.128;8.520;2023-05-08T07:30:49;100876.72;;;21.17;68.57
28428;BME280;15662;49.128;8.520;2023-05-08T07:33:20;100880.38;;;21.16;68.84
28428;BME280;15662;49.128;8.520;2023-05-08T07:35:47;100879.34;;;21.18;68.64
28428;BME280;15662;49.128;8.520;2023-05-08T07:38:15;100881.91;;;21.20;68.55
28428;BME280;15662;49.128;8.520;2023-05-08T07:40:43;100881.13;;;21.18;68.66
28428;BME280;15662;49.128;8.520;2023-05-08T07:43:14;100885.59;;;21.19;68.34
28428;BME280;15662;49.128;8.520;2023-05-08T07:45:42;100886.06;;;21.25;68.42
28428;BME280;15662;49.128;8.520;2023-05-08T07:48:09;100888.59;;;21.28;68.33
28428;BME280;15662;49.128;8.520;2023-05-08T07:50:38;100878.66;;;21.29;68.39
28428;BME280;15662;49.128;8.520;2023-05-08T07:53:12;100886.81;;;21.27;68.14
28428;BME280;15662;49.128;8.520;2023-05-08T07:55:40;100888.47;;;21.30;68.27
28428;BME280;15662;49.128;8.520;2023-05-08T07:58:08;100889.28;;;21.32;68.24
28428;BME280;15662;49.128;8.520;2023-05-08T08:00:36;100902.56;;;21.35;68.42
28428;BME280;15662;49.128;8.520;2023-05-08T08:03:04;100889.78;;;21.38;68.26
28428;BME280;15662;49.128;8.520;2023-05-08T08:05:33;100887.53;;;21.45;67.96
28428;BME280;15662;49.128;8.520;2023-05-08T08:08:01;100889.97;;;21.50;68.14
28428;BME280;15662;49.128;8.520;2023-05-08T08:10:31;100894.28;;;21.52;67.90
28428;BME280;15662;49.128;8.520;2023-05-08T08:12:59;100890.53;;;21.55;68.15
28428;BME280;15662;49.128;8.520;2023-05-08T08:15:35;100895.94;;;21.55;67.92
28428;BME280;15662;49.128;8.520;2023-05-08T08:18:02;100885.13;;;21.55;67.88
28428;BME280;15662;49.128;8.520;2023-05-08T08:20:33;100883.19;;;21.57;67.79
28428;BME280;15662;49.128;8.520;2023-05-08T08:23:09;100897.94;;;21.66;67.71
28428;BME280;15662;49.128;8.520;2023-05-08T08:25:39;100894.47;;;21.63;67.55
28428;BME280;15662;49.128;8.520;2023-05-08T08:28:07;100896.59;;;21.73;67.49
28428;BME280;15662;49.128;8.520;2023-05-08T08:30:35;100896.38;;;21.76;67.26
28428;BME280;15662;49.128;8.520;2023-05-08T08:33:09;100893.00;;;21.72;66.99
28428;BME280;15662;49.128;8.520;2023-05-08T08:35:37;100900.91;;;21.75;67.18
28428;BME280;15662;49.128;8.520;2023-05-08T08:38:10;100888.97;;;21.79;67.23
28428;BME280;15662;49.128;8.520;2023-05-08T08:40:41;100883.56;;;21.79;67.14
28428;BME280;15662;49.128;8.520;2023-05-08T08:43:12;100899.38;;;21.85;67.00
28428;BME280;15662;49.128;8.520;2023-05-08T08:45:39;100890.97;;;21.90;66.97
28428;BME280;15662;49.128;8.520;2023-05-08T08:48:09;100883.75;;;21.90;66.77
28428;BME280;15662;49.128;8.520;2023-05-08T08:50:42;100889.91;;;21.93;66.57
28428;BME280;15662;49.128;8.520;2023-05-08T08:53:14;100896.19;;;21.93;66.42
28428;BME280;15662;49.128;8.520;2023-05-08T08:55:46;100895.31;;;21.93;66.32
28428;BME280;15662;49.128;8.520;2023-05-08T09:00:55;100896.25;;;21.92;66.18
28428;BME280;15662;49.128;8.520;2023-05-08T09:03:22;100904.84;;;21.98;66.41
28428;BME280;15662;49.128;8.520;2023-05-08T09:05:59;100896.44;;;22.03;66.36
28428;BME280;15662;49.128;8.520;2023-05-08T09:08:29;100893.53;;;22.06;66.55
28428;BME280;15662;49.128;8.520;2023-05-08T09:11:04;100900.88;;;22.18;66.50
28428;BME280;15662;49.128;8.520;2023-05-08T09:13:31;100899.03;;;22.19;65.89
28428;BME280;15662;49.128;8.520;2023-05-08T09:16:01;100900.66;;;22.21;65.65
28428;BME280;15662;49.128;8.520;2023-05-08T09:18:33;100895.25;;;22.21;65.75
28428;BME280;15662;49.128;8.520;2023-05-08T09:21:05;100899.31;;;22.28;65.46
28428;BME280;15662;49.128;8.520;2023-05-08T09:23:36;100897.56;;;22.27;65.34
28428;BME280;15662;49.128;8.520;2023-05-08T09:26:38;100902.00;;;22.28;64.99
28428;BME280;15662;49.128;8.520;2023-05-08T09:29:11;100904.88;;;22.25;65.22
28428;BME280;15662;49.128;8.520;2023-05-08T09:31:42;100898.44;;;22.28;65.16
28428;BME280;15662;49.128;8.520;2023-05-08T09:34:26;100894.66;;;22.30;64.59
28428;BME280;15662;49.128;8.520;2023-05-08T09:37:17;100906.00;;;22.35;64.62
28428;BME280;15662;49.128;8.520;2023-05-08T09:39:48;100903.31;;;22.35;65.04
28428;BME280;15662;49.128;8.520;2023-05-08T09:42:16;100902.56;;;22.33;64.62
28428;BME280;15662;49.128;8.520;2023-05-08T09:44:51;100916.22;;;22.45;64.40
28428;BME280;15662;49.128;8.520;2023-05-08T09:47:23;100920.75;;;22.44;64.24
28428;BME280;15662;49.128;8.520;2023-05-08T09:52:33;100918.59;;;22.49;64.48
28428;BME280;15662;49.128;8.520;2023-05-08T09:55:09;100919.16;;;22.54;64.30
28428;BME280;15662;49.128;8.520;2023-05-08T09:57:58;100918.09;;;22.57;63.82
28428;BME280;15662;49.128;8.520;2023-05-08T10:00:28;100922.53;;;22.58;63.98
28428;BME280;15662;49.128;8.520;2023-05-08T10:03:00;100925.97;;;22.60;64.00
28428;BME280;15662;49.128;8.520;2023-05-08T10:05:32;100918.09;;;22.57;63.45
28428;BME280;15662;49.128;8.520;2023-05-08T10:08:22;100925.22;;;22.58;63.05
28428;BME280;15662;49.128;8.520;2023-05-08T10:10:51;100926.28;;;22.55;63.31
28428;BME280;15662;49.128;8.520;2023-05-08T10:13:22;100927.50;;;22.51;63.42
28428;BME280;15662;49.128;8.520;2023-05-08T10:16:03;100928.44;;;22.50;63.40
28428;BME280;15662;49.128;8.520;2023-05-08T10:18:34;100923.69;;;22.54;63.19
28428;BME280;15662;49.128;8.520;2023-05-08T10:21:07;100918.19;;;22.55;63.02
28428;BME280;15662;49.128;8.520;2023-05-08T10:23:38;100925.44;;;22.55;63.00
28428;BME280;15662;49.128;8.520;2023-05-08T10:26:12;100912.69;;;22.57;63.00
28428;BME280;15662;49.128;8.520;2023-05-08T10:28:58;100922.00;;;22.65;62.89
28428;BME280;15662;49.128;8.520;2023-05-08T10:31:34;100920.81;;;22.70;63.07
28428;BME280;15662;49.128;8.520;2023-05-08T10:34:03;100931.13;;;22.77;62.97
28428;BME280;15662;49.128;8.520;2023-05-08T10:36:35;100917.31;;;22.82;62.97
28428;BME280;15662;49.128;8.520;2023-05-08T10:39:04;100913.44;;;22.86;62.94
28428;BME280;15662;49.128;8.520;2023-05-08T10:41:35;100920.06;;;22.95;62.52
28428;BME280;15662;49.128;8.520;2023-05-08T10:44:05;100917.16;;;22.98;62.59
28428;BME280;15662;49.128;8.520;2023-05-08T10:46:50;100922.13;;;23.04;62.55
28428;BME280;15662;49.128;8.520;2023-05-08T10:52:49;100910.78;;;23.11;62.99
28428;BME280;15662;49.128;8.520;2023-05-08T10:55:30;100915.09;;;23.14;62.30
28428;BME280;15662;49.128;8.520;2023-05-08T10:58:08;100920.66;;;23.25;62.58
28428;BME280;15662;49.128;8.520;2023-05-08T11:03:19;100911.34;;;23.42;62.18
28428;BME280;15662;49.128;8.520;2023-05-08T11:06:01;100901.72;;;23.51;62.18
28428;BME280;15662;49.128;8.520;2023-05-08T11:08:30;100908.41;;;23.58;61.54
28428;BME280;15662;49.128;8.520;2023-05-08T11:13:53;100909.50;;;23.68;60.64
28428;BME280;15662;49.128;8.520;2023-05-08T11:17:01;100906.91;;;23.66;60.40
28428;BME280;15662;49.128;8.520;2023-05-08T11:19:32;100905.50;;;23.61;60.68
28428;BME280;15662;49.128;8.520;2023-05-08T11:22:21;100909.06;;;23.61;60.66
28428;BME280;15662;49.128;8.520;2023-05-08T11:25:11;100903.34;;;23.66;60.56
28428;BME280;15662;49.128;8.520;2023-05-08T11:30:40;100898.44;;;23.58;60.27
28428;BME280;15662;49.128;8.520;2023-05-08T11:33:12;100898.56;;;23.57;60.71
28428;BME280;15662;49.128;8.520;2023-05-08T11:38:27;100899.34;;;23.46;61.58
28428;BME280;15662;49.128;8.520;2023-05-08T11:46:53;100905.16;;;23.78;60.61
28428;BME280;15662;49.128;8.520;2023-05-08T11:49:25;100894.75;;;23.85;60.86
28428;BME280;15662;49.128;8.520;2023-05-08T11:51:58;100884.47;;;23.90;60.50
28428;BME280;15662;49.128;8.520;2023-05-08T11:54:29;100896.53;;;24.10;60.33
28428;BME280;15662;49.128;8.520;2023-05-08T11:56:59;100889.03;;;24.13;59.89
28428;BME280;15662;49.128;8.520;2023-05-08T11:59:33;100880.84;;;24.26;60.10
28428;BME280;15662;49.128;8.520;2023-05-08T12:02:01;100879.66;;;24.30;59.68
28428;BME280;15662;49.128;8.520;2023-05-08T12:04:42;100874.44;;;24.40;59.12
28428;BME280;15662;49.128;8.520;2023-05-08T12:07:12;100883.31;;;24.42;59.13
28428;BME280;15662;49.128;8.520;2023-05-08T12:09:40;100891.94;;;24.47;59.05
28428;BME280;15662;49.128;8.520;2023-05-08T12:12:08;100889.88;;;24.51;58.68
28428;BME280;15662;49.128;8.520;2023-05-08T12:14:36;100889.53;;;24.55;58.16
28428;BME280;15662;49.128;8.520;2023-05-08T12:17:06;100878.81;;;24.54;58.26
28428;BME280;15662;49.128;8.520;2023-05-08T12:19:38;100886.81;;;24.55;58.11
28428;BME280;15662;49.128;8.520;2023-05-08T12:22:08;100883.91;;;24.58;58.05
28428;BME280;15662;49.128;8.520;2023-05-08T12:24:38;100894.41;;;24.39;58.23
28428;BME280;15662;49.128;8.520;2023-05-08T12:27:06;100888.38;;;24.47;58.54
28428;BME280;15662;49.128;8.520;2023-05-08T12:29:35;100889.31;;;24.58;58.15
28428;BME280;15662;49.128;8.520;2023-05-08T12:32:04;100886.13;;;24.64;57.84
28428;BME280;15662;49.128;8.520;2023-05-08T12:34:34;100872.22;;;24.69;57.71
28428;BME280;15662;49.128;8.520;2023-05-08T12:37:04;100885.28;;;24.75;57.49
28428;BME280;15662;49.128;8.520;2023-05-08T12:39:35;100868.03;;;24.76;57.53
28428;BME280;15662;49.128;8.520;2023-05-08T12:42:06;100867.31;;;24.74;57.18
28428;BME280;15662;49.128;8.520;2023-05-08T12:44:34;100873.47;;;24.76;56.65
28428;BME280;15662;49.128;8.520;2023-05-08T12:47:04;100868.03;;;24.76;56.72
28428;BME280;15662;49.128;8.520;2023-05-08T12:49:39;100869.03;;;24.75;56.53
28428;BME280;15662;49.128;8.520;2023-05-08T12:52:12;100868.91;;;24.77;56.29
28428;BME280;15662;49.128;8.520;2023-05-08T12:54:46;100867.91;;;24.78;56.18
28428;BME280;15662;49.128;8.520;2023-05-08T12:57:18;100874.31;;;24.77;56.29
28428;BME280;15662;49.128;8.520;2023-05-08T12:59:46;100865.59;;;24.73;55.90
28428;BME280;15662;49.128;8.520;2023-05-08T13:02:19;100868.16;;;24.75;56.13
28428;BME280;15662;49.128;8.520;2023-05-08T13:04:54;100857.81;;;24.68;55.83
28428;BME280;15662;49.128;8.520;2023-05-08T13:07:31;100871.22;;;24.70;56.21
28428;BME280;15662;49.128;8.520;2023-05-08T13:10:01;100870.25;;;24.71;55.84
28428;BME280;15662;49.128;8.520;2023-05-08T13:12:33;100868.31;;;24.73;55.86
28428;BME280;15662;49.128;8.520;2023-05-08T13:15:03;100873.59;;;24.75;55.85
28428;BME280;15662;49.128;8.520;2023-05-08T13:17:31;100867.06;;;24.77;55.46
28428;BME280;15662;49.128;8.520;2023-05-08T13:19:59;100862.63;;;24.76;55.57
28428;BME280;15662;49.128;8.520;2023-05-08T13:22:27;100849.81;;;24.78;55.39
28428;BME280;15662;49.128;8.520;2023-05-08T13:24:55;100864.84;;;24.82;55.49
28428;BME280;15662;49.128;8.520;2023-05-08T13:27:22;100855.00;;;24.81;55.03
28428;BME280;15662;49.128;8.520;2023-05-08T13:29:52;100866.25;;;24.88;55.13
28428;BME280;15662;49.128;8.520;2023-05-08T13:32:29;100866.00;;;24.91;55.42
28428;BME280;15662;49.128;8.520;2023-05-08T13:34:56;100853.19;;;24.93;55.07
28428;BME280;15662;49.128;8.520;2023-05-08T13:37:27;100853.06;;;24.94;54.78
28428;BME280;15662;49.128;8.520;2023-05-08T13:39:55;100861.19;;;24.94;54.96
28428;BME280;15662;49.128;8.520;2023-05-08T13:42:25;100865.41;;;24.99;55.10
28428;BME280;15662;49.128;8.520;2023-05-08T13:44:53;100864.63;;;24.96;54.72
28428;BME280;15662;49.128;8.520;2023-05-08T13:47:20;100853.28;;;24.91;54.43
28428;BME280;15662;49.128;8.520;2023-05-08T13:49:48;100856.88;;;24.92;54.36
28428;BME280;15662;49.128;8.520;2023-05-08T13:52:18;100850.72;;;24.90;54.32
28428;BME280;15662;49.128;8.520;2023-05-08T13:54:46;100855.00;;;24.92;54.53
28428;BME280;15662;49.128;8.520;2023-05-08T13:57:14;100842.44;;;24.91;54.37
28428;BME280;15662;49.128;8.520;2023-05-08T13:59:44;100832.72;;;24.89;54.28
28428;BME280;15662;49.128;8.520;2023-05-08T14:02:11;100839.34;;;24.85;54.13
28428;BME280;15662;49.128;8.520;2023-05-08T14:04:42;100826.88;;;24.82;54.69